Time;durP1;ratioP1;P1;durP2;ratioP2;P2;SDS_P1;SDS_P2;PMS_P1;PMS_P2;Temp;Humidity;BMP_temperature;BMP_pressure;BME280_temperature;BME280_humidity;BME280_pressure;Samples;Min_cycle;Max_cycle;Signal;HPM_P1;HPM_P2
2022/09/26 00:01:07;;;;;;;6.72;3.42;;;12.20;93.90;;;;;;5017957;28;20056;-79
2022/09/26 00:03:34;;;;;;;6.88;2.85;;;12.30;94.00;;;;;;5017835;28;20478;-79
2022/09/26 00:06:02;;;;;;;5.75;3.22;;;12.30;94.00;;;;;;5001863;28;20021;-79
2022/09/26 00:08:28;;;;;;;11.25;3.35;;;12.30;94.10;;;;;;5035691;28;20652;-79
2022/09/26 00:10:57;;;;;;;6.25;3.05;;;12.30;94.10;;;;;;5035570;28;20057;-79
2022/09/26 00:13:23;;;;;;;6.93;3.10;;;12.30;94.10;;;;;;5035430;28;20381;-79
2022/09/26 00:15:49;;;;;;;5.65;2.78;;;12.30;94.20;;;;;;5001323;28;20481;-79
2022/09/26 00:18:15;;;;;;;5.57;2.88;;;12.30;94.30;;;;;;5017844;28;20055;-79
2022/09/26 00:20:40;;;;;;;6.07;2.72;;;12.40;94.30;;;;;;5001820;28;20022;-79
2022/09/26 00:23:06;;;;;;;6.28;2.40;;;12.30;94.40;;;;;;5001361;28;20021;-79
2022/09/26 00:25:32;;;;;;;5.97;2.28;;;12.30;94.40;;;;;;5017521;28;20029;-79
2022/09/26 00:27:57;;;;;;;5.22;2.78;;;12.30;94.40;;;;;;5001509;28;20025;-79
2022/09/26 00:30:23;;;;;;;4.75;2.42;;;12.30;94.40;;;;;;5001054;28;20037;-78
2022/09/26 00:32:48;;;;;;;5.88;2.85;;;12.30;94.50;;;;;;5023698;28;20029;-78
2022/09/26 00:35:14;;;;;;;5.15;2.20;;;12.30;94.50;;;;;;5033409;28;20116;-80
2022/09/26 00:37:40;;;;;;;3.80;1.83;;;12.40;94.50;;;;;;5005383;28;20022;-80
2022/09/26 00:40:06;;;;;;;6.85;2.03;;;12.40;94.40;;;;;;5001111;28;20052;-79
2022/09/26 00:42:32;;;;;;;5.22;2.55;;;12.40;94.40;;;;;;5000746;28;20021;-79
2022/09/26 00:44:57;;;;;;;5.10;1.98;;;12.40;94.50;;;;;;5001128;28;20095;-79
2022/09/26 00:47:37;;;;;;;6.70;2.10;;;12.40;94.50;;;;;;5000840;28;20088;-79
2022/09/26 00:50:29;;;;;;;5.15;1.77;;;12.50;94.50;;;;;;5017174;28;20060;-78
2022/09/26 00:53:06;;;;;;;7.72;2.75;;;12.50;94.60;;;;;;5017127;28;20400;-81
2022/09/26 00:55:37;;;;;;;5.40;2.25;;;12.50;94.50;;;;;;5016591;28;20046;-79
2022/09/26 00:58:17;;;;;;;7.90;2.75;;;12.50;94.50;;;;;;5016968;28;20024;-79
2022/09/26 01:00:46;;;;;;;5.70;2.10;;;12.50;94.60;;;;;;5016813;28;20474;-78
2022/09/26 01:03:13;;;;;;;5.15;2.50;;;12.50;94.60;;;;;;5016852;28;20017;-79
2022/09/26 01:05:39;;;;;;;6.32;2.38;;;12.50;94.70;;;;;;5000474;28;20029;-80
2022/09/26 01:08:04;;;;;;;7.97;3.45;;;12.50;94.80;;;;;;5000487;28;20091;-78
2022/09/26 01:10:31;;;;;;;5.63;2.60;;;12.50;95.10;;;;;;5000727;28;20386;-78
2022/09/26 01:13:00;;;;;;;5.90;2.88;;;12.50;95.20;;;;;;5000424;28;20029;-78
2022/09/26 01:15:25;;;;;;;6.45;2.63;;;12.50;95.00;;;;;;5016586;28;20021;-78
2022/09/26 01:17:51;;;;;;;7.32;3.13;;;12.40;95.10;;;;;;4999998;28;20075;-78
2022/09/26 01:20:36;;;;;;;7.22;3.80;;;12.40;95.10;;;;;;5016440;28;20095;-78
2022/09/26 01:23:25;;;;;;;5.93;2.65;;;12.40;95.20;;;;;;5016580;28;20021;-78
2022/09/26 01:26:08;;;;;;;5.90;3.03;;;12.40;95.30;;;;;;5016478;28;20013;-79
2022/09/26 01:29:15;;;;;;;5.05;2.78;;;12.40;95.20;;;;;;5016328;28;20039;-79
2022/09/26 01:35:12;;;;;;;6.13;2.45;;;12.40;95.30;;;;;;5000687;28;20121;-79
2022/09/26 01:37:48;;;;;;;7.05;2.80;;;12.40;95.40;;;;;;5016246;28;20032;-79
2022/09/26 01:40:35;;;;;;;7.90;2.55;;;12.30;95.40;;;;;;5034229;28;20018;-79
2022/09/26 01:43:38;;;;;;;13.70;4.15;;;12.30;95.50;;;;;;5016261;28;20032;-79
2022/09/26 01:46:23;;;;;;;5.82;2.90;;;12.40;95.50;;;;;;4996089;28;20033;-78
2022/09/26 01:49:05;;;;;;;5.03;2.72;;;12.30;95.50;;;;;;5015865;28;20493;-79
2022/09/26 01:51:58;;;;;;;7.00;3.05;;;12.30;95.50;;;;;;5015879;28;20107;-80
2022/09/26 01:54:35;;;;;;;5.68;3.78;;;12.40;95.60;;;;;;5033505;28;20049;-79
2022/09/26 01:57:05;;;;;;;5.93;3.28;;;12.30;95.60;;;;;;5033856;28;20488;-78
2022/09/26 01:59:48;;;;;;;8.00;3.58;;;12.40;95.60;;;;;;5016196;28;20078;-79
2022/09/26 02:02:24;;;;;;;8.77;3.50;;;12.40;95.60;;;;;;5015980;28;20053;-79
2022/09/26 02:04:55;;;;;;;7.55;3.95;;;12.40;95.60;;;;;;5015966;28;20034;-79
2022/09/26 02:07:39;;;;;;;6.25;3.03;;;12.40;95.70;;;;;;5015406;28;20473;-79
2022/09/26 02:10:27;;;;;;;5.70;3.35;;;12.40;95.50;;;;;;5015894;28;20429;-80
2022/09/26 02:13:01;;;;;;;6.93;3.42;;;12.40;95.60;;;;;;5009240;28;20124;-78
2022/09/26 02:15:30;;;;;;;5.47;3.13;;;12.30;95.50;;;;;;5033646;28;20025;-80
2022/09/26 02:18:05;;;;;;;6.15;3.28;;;12.40;95.50;;;;;;5015618;28;20022;-78
2022/09/26 02:20:36;;;;;;;6.90;3.38;;;12.30;95.50;;;;;;5015665;28;20025;-80
2022/09/26 02:23:02;;;;;;;6.13;3.65;;;12.30;95.40;;;;;;5033409;28;20136;-80
2022/09/26 02:25:29;;;;;;;4.70;2.67;;;12.30;95.40;;;;;;5000040;28;20358;-79
2022/09/26 02:27:56;;;;;;;8.52;2.83;;;12.30;95.40;;;;;;5015852;28;20025;-79
2022/09/26 02:30:22;;;;;;;8.93;3.42;;;12.30;95.40;;;;;;4999301;28;20026;-82
2022/09/26 02:32:48;;;;;;;5.25;2.60;;;12.30;95.30;;;;;;4999231;28;20033;-82
2022/09/26 02:38:00;;;;;;;10.68;3.10;;;12.30;95.20;;;;;;5034007;28;20088;-82
2022/09/26 02:40:43;;;;;;;8.65;3.00;;;12.30;95.20;;;;;;4999306;28;20036;-79
2022/09/26 02:44:01;;;;;;;7.70;2.97;;;12.30;95.10;;;;;;5015715;28;20048;-79
2022/09/26 02:46:30;;;;;;;7.78;3.25;;;12.30;95.00;;;;;;5012344;28;20068;-79
2022/09/26 02:49:20;;;;;;;7.22;2.35;;;12.30;94.80;;;;;;5015526;28;20062;-79
2022/09/26 02:52:06;;;;;;;4.63;2.13;;;12.30;94.70;;;;;;5015348;28;20071;-78
2022/09/26 02:54:55;;;;;;;4.95;2.28;;;12.40;94.60;;;;;;5015084;28;20046;-78
2022/09/26 02:57:44;;;;;;;4.90;1.98;;;12.30;94.50;;;;;;4987953;28;20026;-79
2022/09/26 03:00:18;;;;;;;10.43;2.45;;;12.30;94.40;;;;;;5033357;28;20071;-80
2022/09/26 03:02:48;;;;;;;6.40;2.28;;;12.40;94.30;;;;;;5015546;28;20018;-78
2022/09/26 03:05:22;;;;;;;8.50;2.42;;;12.40;94.20;;;;;;5015385;28;20021;-79
2022/09/26 03:08:03;;;;;;;7.00;2.25;;;12.40;94.20;;;;;;5015197;28;20116;-79
2022/09/26 03:10:31;;;;;;;6.82;2.35;;;12.40;94.10;;;;;;5015142;28;20490;-80
2022/09/26 03:13:07;;;;;;;10.57;3.45;;;12.40;94.10;;;;;;5011658;28;20423;-82
2022/09/26 03:15:35;;;;;;;12.07;2.85;;;12.40;94.10;;;;;;5034936;28;20036;-81
2022/09/26 03:18:05;;;;;;;5.38;2.47;;;12.40;94.10;;;;;;5014921;28;20029;-82
2022/09/26 03:20:31;;;;;;;5.50;2.60;;;12.40;94.10;;;;;;5034651;28;20036;-82
2022/09/26 03:22:57;;;;;;;10.68;2.47;;;12.30;94.00;;;;;;5018735;28;20022;-81
2022/09/26 03:25:26;;;;;;;6.35;2.63;;;12.40;94.10;;;;;;5018972;28;20040;-82
2022/09/26 03:27:53;;;;;;;7.95;3.17;;;12.30;94.20;;;;;;5018900;28;20026;-83
2022/09/26 03:30:20;;;;;;;6.50;2.30;;;12.30;94.30;;;;;;5036357;28;20363;-83
2022/09/26 03:32:46;;;;;;;6.47;2.65;;;12.30;94.30;;;;;;5024925;28;20349;-82
2022/09/26 03:35:12;;;;;;;6.70;2.25;;;12.20;94.30;;;;;;5056025;28;20055;-79
2022/09/26 03:37:38;;;;;;;5.43;2.40;;;12.20;94.30;;;;;;5054796;28;20388;-79
2022/09/26 03:40:07;;;;;;;8.70;2.78;;;12.20;94.30;;;;;;5054895;28;20021;-78
2022/09/26 03:42:33;;;;;;;7.47;2.17;;;12.20;94.40;;;;;;5054741;28;20494;-79
2022/09/26 03:44:59;;;;;;;6.97;3.00;;;12.20;94.30;;;;;;5038139;28;20120;-79
2022/09/26 03:47:25;;;;;;;8.35;2.65;;;12.20;94.40;;;;;;5038481;28;20109;-79
2022/09/26 03:49:51;;;;;;;8.32;2.80;;;12.20;94.50;;;;;;5021555;28;20112;-79
2022/09/26 03:52:17;;;;;;;5.10;2.25;;;12.20;94.60;;;;;;5038602;28;20033;-79
2022/09/26 03:54:44;;;;;;;8.32;2.65;;;12.20;94.60;;;;;;5037720;28;20132;-80
2022/09/26 03:57:14;;;;;;;12.60;2.90;;;12.10;94.50;;;;;;5054602;28;20033;-81
2022/09/26 03:59:40;;;;;;;6.97;3.05;;;12.10;94.50;;;;;;5038334;28;20017;-80
2022/09/26 04:02:07;;;;;;;9.88;3.38;;;12.10;94.60;;;;;;5037913;28;20362;-80
2022/09/26 04:04:33;;;;;;;6.57;2.15;;;12.10;94.50;;;;;;5037958;28;20036;-81
2022/09/26 04:06:59;;;;;;;9.32;2.20;;;12.10;94.50;;;;;;5037840;28;20029;-82
2022/09/26 04:09:25;;;;;;;5.53;2.25;;;12.10;94.60;;;;;;5037800;28;20481;-80
2022/09/26 04:11:52;;;;;;;4.63;2.38;;;12.10;94.50;;;;;;5037696;28;20029;-78
2022/09/26 04:14:18;;;;;;;5.30;2.28;;;12.00;94.60;;;;;;5054148;28;20021;-82
2022/09/26 04:16:45;;;;;;;9.43;2.80;;;12.00;94.60;;;;;;5054141;28;20021;-81
2022/09/26 04:19:12;;;;;;;10.15;3.55;;;12.00;94.40;;;;;;5055378;28;20096;-79
2022/09/26 04:21:39;;;;;;;5.72;2.03;;;12.00;94.40;;;;;;5054000;28;20017;-80
2022/09/26 04:24:06;;;;;;;5.38;2.05;;;12.00;94.40;;;;;;5054008;28;20064;-80
2022/09/26 04:26:32;;;;;;;6.90;2.38;;;12.00;94.40;;;;;;5037630;28;20056;-81
2022/09/26 04:28:58;;;;;;;5.22;2.08;;;11.90;94.30;;;;;;5053967;28;20090;-80
2022/09/26 04:31:29;;;;;;;4.53;1.92;;;12.00;94.40;;;;;;5037742;28;20108;-80
2022/09/26 04:33:55;;;;;;;6.75;2.17;;;11.90;94.30;;;;;;5053753;28;20039;-81
2022/09/26 04:36:22;;;;;;;8.57;2.38;;;11.90;94.20;;;;;;5041763;28;20124;-80
2022/09/26 04:38:47;;;;;;;7.70;1.63;;;11.90;94.20;;;;;;5020693;28;20029;-81
2022/09/26 04:41:15;;;;;;;6.15;1.80;;;11.90;94.20;;;;;;5020583;28;20035;-80
2022/09/26 04:43:41;;;;;;;5.15;1.60;;;11.90;94.10;;;;;;5030112;28;20018;-81
2022/09/26 04:46:20;;;;;;;7.88;1.65;;;11.90;94.00;;;;;;5016041;28;20029;-79
2022/09/26 04:48:46;;;;;;;6.68;1.92;;;11.90;94.00;;;;;;5022815;28;20017;-80
2022/09/26 04:51:13;;;;;;;4.75;1.55;;;11.90;94.00;;;;;;5040207;28;20021;-81
2022/09/26 04:53:40;;;;;;;5.72;2.03;;;11.90;93.90;;;;;;5044212;28;20380;-80
2022/09/26 04:56:08;;;;;;;7.38;1.63;;;11.90;93.80;;;;;;5020393;28;20045;-78
2022/09/26 04:58:35;;;;;;;5.80;1.77;;;11.90;93.80;;;;;;5036669;28;20044;-81
2022/09/26 05:01:02;;;;;;;8.80;1.70;;;11.90;93.80;;;;;;5020396;28;20420;-80
2022/09/26 05:03:28;;;;;;;6.65;2.00;;;11.90;93.70;;;;;;5020055;28;20048;-80
2022/09/26 05:05:55;;;;;;;6.70;1.83;;;11.80;93.70;;;;;;5020095;28;20354;-80
2022/09/26 05:08:22;;;;;;;6.93;1.70;;;11.90;93.70;;;;;;5054300;28;20036;-80
2022/09/26 05:10:56;;;;;;;4.88;1.63;;;11.80;93.60;;;;;;5020404;28;20036;-79
2022/09/26 05:13:22;;;;;;;9.32;2.17;;;11.80;93.50;;;;;;5036393;28;20024;-81
2022/09/26 05:15:49;;;;;;;3.20;1.45;;;11.90;93.60;;;;;;5036176;28;20047;-80
2022/09/26 05:18:15;;;;;;;6.00;2.10;;;11.90;93.70;;;;;;5020139;28;20033;-79
2022/09/26 05:20:47;;;;;;;8.23;2.03;;;11.80;93.90;;;;;;5036344;28;20029;-78
2022/09/26 05:26:18;;;;;;;6.70;2.00;;;11.80;94.00;;;;;;5036471;28;20017;-79
2022/09/26 05:26:18;;;;;;;6.03;2.00;;;11.70;94.20;;;;;;5054157;28;20055;-79
2022/09/26 05:28:44;;;;;;;;;;;11.70;94.40;;;;;;5022647;28;20025;-78
2022/09/26 05:31:10;;;;;;;5.05;1.90;;;11.70;94.70;;;;;;5036292;28;19908;-81
2022/09/26 05:33:37;;;;;;;4.13;1.90;;;11.60;94.60;;;;;;5036448;28;20381;-81
2022/09/26 05:36:04;;;;;;;5.50;1.70;;;11.60;94.60;;;;;;5036332;28;20481;-80
2022/09/26 05:38:29;;;;;;;3.65;1.80;;;11.60;94.80;;;;;;5035462;28;20056;-79
2022/09/26 05:40:55;;;;;;;9.73;2.15;;;11.60;94.80;;;;;;5002473;28;20045;-82
2022/09/26 05:43:26;;;;;;;7.03;2.10;;;11.60;94.80;;;;;;5018784;28;20489;-80
2022/09/26 05:46:02;;;;;;;7.20;2.50;;;11.50;94.90;;;;;;5053550;28;20546;-80
2022/09/26 05:48:28;;;;;;;6.60;2.88;;;11.50;94.90;;;;;;5035794;28;20073;-80
2022/09/26 05:50:54;;;;;;;6.18;1.95;;;11.50;95.00;;;;;;5019265;28;20021;-80
2022/09/26 05:53:20;;;;;;;7.78;1.83;;;11.50;95.00;;;;;;5035708;28;20013;-81
2022/09/26 05:55:50;;;;;;;7.00;2.50;;;11.60;95.20;;;;;;5035962;28;20049;-80
2022/09/26 05:58:19;;;;;;;4.57;1.92;;;11.50;95.20;;;;;;5035750;28;20455;-79
2022/09/26 06:00:48;;;;;;;7.88;1.65;;;11.50;95.10;;;;;;5020060;28;20538;-79
2022/09/26 06:03:14;;;;;;;7.30;2.17;;;11.50;95.20;;;;;;5036044;28;20025;-82
2022/09/26 06:05:41;;;;;;;6.70;2.83;;;11.60;95.30;;;;;;5019335;28;20052;-81
2022/09/26 06:08:08;;;;;;;7.90;2.47;;;11.60;95.30;;;;;;5035564;28;20162;-79
2022/09/26 06:10:35;;;;;;;7.03;2.38;;;11.60;95.30;;;;;;5019495;28;20487;-82
2022/09/26 06:13:02;;;;;;;7.03;2.50;;;11.60;95.30;;;;;;5053550;28;20049;-81
2022/09/26 06:15:31;;;;;;;7.18;2.28;;;11.60;95.40;;;;;;5019218;28;20029;-81
2022/09/26 06:18:03;;;;;;;6.93;2.55;;;11.60;95.50;;;;;;5035859;28;20079;-80
2022/09/26 06:20:32;;;;;;;10.02;2.10;;;11.70;95.60;;;;;;5052967;28;20013;-81
2022/09/26 06:22:59;;;;;;;5.05;1.95;;;11.60;95.50;;;;;;5002637;28;20031;-80
2022/09/26 06:25:25;;;;;;;7.38;1.83;;;11.60;95.60;;;;;;5052783;28;20035;-79
2022/09/26 06:27:55;;;;;;;7.15;2.05;;;11.60;95.60;;;;;;5016322;28;20025;-83
2022/09/26 06:30:22;;;;;;;5.55;2.05;;;11.60;95.70;;;;;;5018878;28;20111;-81
2022/09/26 06:32:50;;;;;;;4.10;1.80;;;11.60;95.80;;;;;;5034970;28;20017;-79
2022/09/26 06:35:16;;;;;;;4.40;1.70;;;11.60;95.70;;;;;;5034649;28;20496;-81
2022/09/26 06:37:42;;;;;;;4.43;1.63;;;11.70;95.80;;;;;;5018982;28;20013;-78
2022/09/26 06:40:10;;;;;;;7.60;2.15;;;11.70;95.80;;;;;;5018926;28;20025;-80
2022/09/26 06:42:36;;;;;;;6.35;1.85;;;11.70;95.70;;;;;;5003310;28;20116;-81
2022/09/26 06:45:06;;;;;;;5.70;2.03;;;11.70;95.70;;;;;;5035315;28;20056;-81
2022/09/26 06:47:32;;;;;;;6.28;2.55;;;11.70;95.60;;;;;;5018229;28;20025;-81
2022/09/26 06:49:58;;;;;;;6.82;2.53;;;11.80;95.60;;;;;;5031663;28;20080;-81
2022/09/26 06:52:25;;;;;;;6.25;1.95;;;11.80;95.60;;;;;;5033067;28;20033;-82
2022/09/26 06:54:54;;;;;;;6.95;2.42;;;11.80;95.50;;;;;;5035396;28;20513;-82
2022/09/26 06:57:20;;;;;;;8.68;1.90;;;11.90;95.40;;;;;;5035609;28;20025;-81
2022/09/26 06:59:46;;;;;;;6.55;1.85;;;11.90;95.40;;;;;;5035449;28;20025;-81
2022/09/26 07:02:15;;;;;;;5.95;2.33;;;12.00;95.40;;;;;;5036468;28;20381;-82
2022/09/26 07:04:41;;;;;;;8.57;2.53;;;12.00;95.40;;;;;;5035604;28;20033;-83
2022/09/26 07:07:07;;;;;;;7.13;2.15;;;12.00;95.40;;;;;;5019321;28;20033;-83
2022/09/26 07:09:33;;;;;;;6.07;2.30;;;11.90;95.30;;;;;;5035578;28;20026;-83
2022/09/26 07:11:59;;;;;;;8.88;2.50;;;11.90;95.20;;;;;;5035846;28;20499;-82
2022/09/26 07:14:24;;;;;;;6.53;2.08;;;12.00;95.30;;;;;;5018932;28;20029;-83
2022/09/26 07:16:50;;;;;;;8.05;2.30;;;11.90;95.20;;;;;;5019065;28;20076;-82
2022/09/26 07:19:17;;;;;;;6.32;2.25;;;11.90;95.10;;;;;;5022204;28;20025;-82
2022/09/26 07:21:43;;;;;;;9.10;2.38;;;11.90;95.50;;;;;;5038989;28;20072;-85
2022/09/26 07:24:12;;;;;;;10.77;2.90;;;12.00;95.20;;;;;;5038843;28;20059;-81
2022/09/26 07:26:39;;;;;;;6.63;1.92;;;12.00;95.20;;;;;;5022572;28;20124;-81
2022/09/26 07:29:06;;;;;;;9.15;1.92;;;12.00;95.10;;;;;;5038866;28;20025;-83
2022/09/26 07:31:31;;;;;;;9.15;2.78;;;12.10;95.10;;;;;;5037036;28;20029;-83
2022/09/26 07:33:57;;;;;;;7.00;2.15;;;12.10;95.10;;;;;;5002664;28;20022;-81
2022/09/26 07:36:22;;;;;;;9.32;1.90;;;12.10;95.10;;;;;;5005102;28;20028;-83
2022/09/26 07:38:48;;;;;;;6.35;1.73;;;12.10;94.90;;;;;;5032836;28;20033;-82
2022/09/26 07:41:15;;;;;;;6.45;2.15;;;12.10;94.90;;;;;;5020374;28;20022;-83
2022/09/26 07:43:40;;;;;;;6.60;1.80;;;12.20;94.80;;;;;;5027769;28;20029;-82
2022/09/26 07:51:34;;;;;;;5.32;2.03;;;12.30;94.70;;;;;;5018404;28;20060;-85
2022/09/26 07:53:59;;;;;;;5.55;1.52;;;12.30;94.70;;;;;;5017790;28;20501;-82
2022/09/26 07:56:25;;;;;;;8.27;1.67;;;12.30;94.60;;;;;;5018285;28;20026;-83
2022/09/26 07:58:54;;;;;;;6.85;1.98;;;12.30;94.50;;;;;;5033646;28;20025;-82
2022/09/26 08:01:19;;;;;;;5.82;1.70;;;12.40;94.50;;;;;;5006335;28;20120;-82
2022/09/26 08:03:49;;;;;;;9.07;1.95;;;12.40;94.50;;;;;;5038104;28;20556;-82
2022/09/26 08:06:19;;;;;;;6.32;1.60;;;12.40;94.50;;;;;;5037218;28;20024;-82
2022/09/26 08:08:46;;;;;;;7.03;2.03;;;12.40;94.40;;;;;;5021993;28;20021;-82
2022/09/26 08:11:17;;;;;;;6.15;1.85;;;12.40;94.40;;;;;;5021245;28;20036;-82
2022/09/26 08:13:43;;;;;;;7.13;2.05;;;12.40;94.40;;;;;;5038132;28;20056;-82
2022/09/26 08:16:10;;;;;;;6.10;1.90;;;12.40;94.30;;;;;;5037502;28;20090;-83
2022/09/26 08:18:36;;;;;;;8.48;2.00;;;12.40;94.30;;;;;;5055585;28;20028;-83
2022/09/26 08:21:04;;;;;;;8.98;2.20;;;12.40;94.40;;;;;;5021206;28;20389;-84
2022/09/26 08:23:30;;;;;;;10.57;1.80;;;12.50;94.30;;;;;;5037818;28;20017;-81
2022/09/26 08:25:57;;;;;;;5.30;1.95;;;12.50;94.40;;;;;;5021062;28;20055;-82
2022/09/26 08:28:27;;;;;;;8.23;1.92;;;12.50;94.40;;;;;;5037396;28;20029;-82
2022/09/26 08:30:53;;;;;;;7.35;1.75;;;12.50;94.40;;;;;;5005261;28;20021;-83
2022/09/26 08:33:20;;;;;;;9.88;1.67;;;12.50;94.50;;;;;;5037758;28;20039;-85
2022/09/26 08:35:47;;;;;;;5.47;1.75;;;12.50;94.40;;;;;;5020791;28;20032;-83
2022/09/26 08:38:14;;;;;;;5.70;1.60;;;12.50;94.40;;;;;;5027747;28;20083;-84
2022/09/26 08:40:54;;;;;;;6.72;1.50;;;12.60;94.50;;;;;;5017462;28;20113;-82
2022/09/26 08:44:25;;;;;;;5.55;1.58;;;12.60;94.50;;;;;;5041343;28;20401;-84
2022/09/26 08:47:00;;;;;;;6.70;2.08;;;12.70;94.40;;;;;;4998351;28;20530;-83
2022/09/26 08:49:37;;;;;;;5.78;1.48;;;12.70;94.40;;;;;;5036846;28;20025;-84
2022/09/26 08:52:14;;;;;;;9.43;2.13;;;12.70;94.40;;;;;;5051256;28;20477;-82
2022/09/26 08:54:43;;;;;;;4.82;1.55;;;12.80;94.30;;;;;;5036624;28;20091;-82
2022/09/26 08:57:21;;;;;;;5.55;1.23;;;12.70;94.20;;;;;;5054771;28;20570;-84
2022/09/26 08:59:52;;;;;;;5.78;1.73;;;12.70;94.20;;;;;;5036914;28;20009;-84
2022/09/26 09:02:32;;;;;;;9.07;2.00;;;12.70;94.20;;;;;;5036786;28;20021;-84
2022/09/26 09:05:19;;;;;;;3.40;1.30;;;12.80;94.20;;;;;;5036831;28;20036;-85
2022/09/26 09:07:49;;;;;;;6.95;1.48;;;12.80;94.30;;;;;;5054486;28;20029;-84
2022/09/26 09:10:17;;;;;;;11.32;2.28;;;12.80;94.40;;;;;;5032257;28;20477;-83
2022/09/26 09:12:49;;;;;;;6.75;1.77;;;12.80;94.60;;;;;;5033691;28;20059;-83
2022/09/26 09:15:32;;;;;;;5.97;1.52;;;12.80;94.70;;;;;;5052934;28;20496;-84
2022/09/26 09:18:23;;;;;;;10.05;2.20;;;12.80;94.80;;;;;;5052940;28;20029;-82
2022/09/26 09:21:17;;;;;;;4.28;1.40;;;12.80;95.30;;;;;;5052832;28;20033;-81
2022/09/26 09:24:02;;;;;;;;;;;12.80;95.30;;;;;;5043603;28;20025;-80
2022/09/26 09:26:41;;;;;;;6.47;1.83;;;12.90;95.70;;;;;;5036394;28;19904;-83
2022/09/26 09:29:15;;;;;;;7.47;1.70;;;12.80;95.70;;;;;;5036179;28;20314;-82
2022/09/26 09:31:43;;;;;;;5.22;1.35;;;12.80;95.90;;;;;;5054015;28;20025;-82
2022/09/26 09:34:37;;;;;;;10.63;2.10;;;12.80;96.00;;;;;;5036192;28;20025;-81
2022/09/26 09:37:07;;;;;;;;;;;12.80;96.20;;;;;;5031704;28;20025;-81
2022/09/26 09:39:36;;;;;;;6.13;2.15;;;12.80;96.60;;;;;;5036198;28;20026;-81
2022/09/26 09:42:30;;;;;;;8.60;2.03;;;12.80;96.70;;;;;;5054217;28;20048;-82
2022/09/26 09:45:11;;;;;;;8.38;1.92;;;12.80;96.90;;;;;;5036131;28;20116;-84
2022/09/26 09:47:38;;;;;;;6.45;2.20;;;12.80;97.40;;;;;;5035857;28;20078;-82
2022/09/26 09:50:13;;;;;;;10.73;2.45;;;12.80;97.80;;;;;;5015657;28;20040;-82
2022/09/26 09:52:45;;;;;;;7.00;2.42;;;12.80;97.90;;;;;;5052318;28;20021;-81
2022/09/26 09:55:25;;;;;;;9.23;2.00;;;12.80;98.20;;;;;;5053308;28;20053;-83
2022/09/26 09:57:51;;;;;;;7.75;1.83;;;12.80;98.30;;;;;;5053460;28;20017;-81
2022/09/26 10:00:19;;;;;;;5.32;1.75;;;12.90;98.40;;;;;;5052077;28;20036;-80
2022/09/26 10:03:17;;;;;;;9.02;1.88;;;12.90;98.50;;;;;;5048114;28;20021;-80
2022/09/26 10:05:50;;;;;;;7.38;1.77;;;12.90;98.50;;;;;;5052325;28;20033;-81
2022/09/26 10:08:34;;;;;;;6.47;2.45;;;12.90;98.50;;;;;;5051835;28;20036;-82
2022/09/26 10:11:21;;;;;;;7.35;1.95;;;13.00;98.50;;;;;;5052032;28;20033;-79
2022/09/26 10:13:52;;;;;;;3.30;1.38;;;13.00;98.50;;;;;;5053497;28;20021;-82
2022/09/26 10:16:18;;;;;;;5.47;2.13;;;13.00;98.60;;;;;;5053379;28;20018;-82
2022/09/26 10:19:07;;;;;;;4.55;1.83;;;13.10;98.60;;;;;;5051561;28;20091;-80
2022/09/26 10:21:38;;;;;;;5.95;2.10;;;13.00;98.70;;;;;;5053092;28;20013;-80
2022/09/26 10:24:06;;;;;;;7.00;1.80;;;13.00;99.20;;;;;;5018994;28;20024;-82
2022/09/26 10:26:33;;;;;;;7.45;2.03;;;13.00;99.20;;;;;;5035454;28;20017;-83
2022/09/26 10:29:24;;;;;;;3.80;1.48;;;12.90;99.40;;;;;;5034670;28;20025;-80
2022/09/26 10:32:00;;;;;;;9.60;2.53;;;12.90;99.60;;;;;;5028159;28;20079;-81
2022/09/26 10:34:31;;;;;;;6.43;2.50;;;12.80;99.90;;;;;;5035808;28;20029;-82
2022/09/26 10:37:24;;;;;;;9.35;2.35;;;12.80;99.90;;;;;;5029918;28;20021;-79
2022/09/26 10:42:39;;;;;;;9.75;3.22;;;12.70;99.90;;;;;;5053518;28;20075;-81
2022/09/26 10:45:14;;;;;;;5.93;2.72;;;12.60;99.90;;;;;;5018873;28;20017;-80
2022/09/26 10:47:45;;;;;;;8.15;2.90;;;12.60;99.90;;;;;;5035501;28;20029;-82
2022/09/26 10:50:18;;;;;;;9.48;2.92;;;12.50;99.90;;;;;;5034619;28;20095;-83
2022/09/26 10:52:54;;;;;;;10.00;4.28;;;12.50;99.90;;;;;;5035197;28;20090;-81
2022/09/26 10:55:28;;;;;;;7.85;3.85;;;12.50;99.90;;;;;;5052795;28;20094;-81
2022/09/26 10:57:58;;;;;;;8.18;3.50;;;12.40;99.90;;;;;;5034709;28;20017;-79
2022/09/26 11:00:35;;;;;;;10.65;3.40;;;12.40;99.90;;;;;;5035100;28;20009;-83
2022/09/26 11:03:04;;;;;;;10.45;3.72;;;12.40;99.90;;;;;;5034787;28;20437;-81
2022/09/26 11:08:19;;;;;;;9.07;3.97;;;12.30;99.90;;;;;;5037985;28;20401;-81
2022/09/26 11:10:47;;;;;;;9.00;3.58;;;12.30;99.90;;;;;;5018548;28;20021;-79
2022/09/26 11:13:22;;;;;;;11.88;4.72;;;12.30;99.90;;;;;;5035161;28;20079;-81
2022/09/26 11:16:11;;;;;;;7.75;3.85;;;12.30;99.90;;;;;;5034814;28;20121;-81
2022/09/26 11:18:41;;;;;;;9.98;4.00;;;12.30;99.90;;;;;;5035206;28;20082;-81
2022/09/26 11:21:40;;;;;;;12.23;4.07;;;12.30;99.90;;;;;;5034842;28;20029;-82
2022/09/26 11:24:23;;;;;;;8.55;4.03;;;12.30;99.90;;;;;;5010878;28;20041;-80
2022/09/26 11:27:20;;;;;;;11.27;4.50;;;12.20;99.90;;;;;;5035061;28;20021;-82
2022/09/26 11:30:01;;;;;;;7.68;4.03;;;12.20;99.90;;;;;;5035003;28;20465;-78
2022/09/26 11:32:41;;;;;;;9.32;4.30;;;12.20;99.90;;;;;;5052694;28;20529;-82
2022/09/26 11:35:32;;;;;;;9.55;3.75;;;12.20;99.90;;;;;;5034604;28;20031;-81
2022/09/26 11:38:17;;;;;;;11.10;4.45;;;12.20;99.90;;;;;;5034592;28;20358;-82
2022/09/26 11:41:09;;;;;;;7.00;4.07;;;12.20;99.90;;;;;;5036564;28;20032;-81
2022/09/26 11:43:44;;;;;;;8.30;3.67;;;12.20;99.90;;;;;;5023033;28;20033;-82
2022/09/26 11:46:33;;;;;;;7.65;3.67;;;12.20;99.90;;;;;;5056032;28;20025;-81
2022/09/26 11:49:04;;;;;;;8.02;3.78;;;12.20;99.90;;;;;;5056084;28;20488;-80
2022/09/26 11:51:51;;;;;;;8.90;3.85;;;12.20;99.90;;;;;;5055939;28;20025;-82
2022/09/26 11:54:32;;;;;;;6.95;2.92;;;12.10;99.90;;;;;;5037724;28;20456;-82
2022/09/26 11:57:15;;;;;;;7.13;3.15;;;12.20;99.90;;;;;;5054489;28;20020;-82
2022/09/26 11:59:49;;;;;;;6.63;2.85;;;12.20;99.90;;;;;;5037421;28;20052;-81
2022/09/26 12:02:31;;;;;;;7.47;3.10;;;12.20;99.90;;;;;;5037776;28;20035;-81
2022/09/26 12:05:23;;;;;;;6.30;3.80;;;12.20;99.90;;;;;;5055600;28;20063;-79
2022/09/26 12:07:52;;;;;;;6.78;3.17;;;12.20;99.90;;;;;;5007487;28;20043;-81
2022/09/26 12:10:31;;;;;;;7.82;3.47;;;12.20;99.90;;;;;;5037737;28;20073;-82
2022/09/26 12:13:18;;;;;;;8.48;3.70;;;12.20;99.90;;;;;;5038062;28;20035;-79
2022/09/26 12:15:59;;;;;;;7.43;3.40;;;12.20;99.90;;;;;;5037536;28;20033;-78
2022/09/26 12:18:45;;;;;;;9.60;3.55;;;12.20;99.90;;;;;;5037557;28;20017;-82
2022/09/26 12:24:39;;;;;;;9.88;3.50;;;12.20;99.90;;;;;;5054315;28;20036;-81
2022/09/26 12:27:19;;;;;;;7.72;2.83;;;12.20;99.90;;;;;;5053708;28;20032;-81
2022/09/26 12:30:10;;;;;;;8.75;3.25;;;12.20;99.90;;;;;;5054445;28;20433;-80
2022/09/26 12:33:00;;;;;;;9.52;2.92;;;12.20;99.90;;;;;;5054039;28;20032;-80
2022/09/26 12:35:49;;;;;;;7.57;3.22;;;12.20;99.90;;;;;;5053974;28;20432;-80
2022/09/26 12:38:42;;;;;;;12.20;3.47;;;12.20;99.90;;;;;;5054206;28;20132;-81
2022/09/26 12:41:36;;;;;;;7.45;2.75;;;12.20;99.90;;;;;;5053782;28;20396;-80
2022/09/26 12:44:24;;;;;;;5.38;2.88;;;12.30;99.90;;;;;;5055246;28;20031;-82
2022/09/26 12:47:21;;;;;;;7.20;2.92;;;12.30;99.90;;;;;;5053564;28;20477;-78
2022/09/26 12:49:50;;;;;;;4.75;2.50;;;12.30;99.90;;;;;;5023747;28;20065;-80
2022/09/26 12:52:49;;;;;;;5.30;2.88;;;12.20;99.90;;;;;;5054216;28;20033;-80
2022/09/26 12:55:23;;;;;;;4.97;2.60;;;12.30;99.90;;;;;;5036386;28;20049;-79
2022/09/26 12:58:07;;;;;;;5.20;2.40;;;12.20;99.90;;;;;;5036906;28;20119;-81
2022/09/26 13:00:58;;;;;;;6.30;2.60;;;12.30;99.90;;;;;;5033632;28;20030;-80
2022/09/26 13:03:31;;;;;;;6.13;2.50;;;12.30;99.90;;;;;;4990322;28;20038;-81
2022/09/26 13:06:16;;;;;;;8.57;2.58;;;12.30;99.90;;;;;;5033376;28;20033;-79
2022/09/26 13:08:57;;;;;;;3.72;1.80;;;12.30;99.90;;;;;;5033804;28;20577;-81
2022/09/26 13:11:47;;;;;;;4.38;2.33;;;12.30;99.90;;;;;;5042508;28;20040;-82
2022/09/26 13:14:13;;;;;;;5.80;2.20;;;12.40;99.90;;;;;;5036463;28;20037;-82
2022/09/26 13:16:42;;;;;;;4.57;1.92;;;12.40;99.90;;;;;;5036067;28;20473;-81
2022/09/26 13:19:42;;;;;;;7.72;2.47;;;12.40;99.90;;;;;;5045523;28;20052;-80
2022/09/26 13:22:33;;;;;;;4.22;1.55;;;12.50;99.90;;;;;;5046241;28;20029;-80
2022/09/26 13:25:19;;;;;;;4.03;2.00;;;12.40;99.90;;;;;;5016403;28;20022;-80
2022/09/26 13:28:05;;;;;;;6.05;1.58;;;12.40;99.90;;;;;;5024029;28;20535;-80
2022/09/26 13:30:35;;;;;;;3.22;1.38;;;12.40;99.90;;;;;;5016521;28;20056;-81
2022/09/26 13:33:25;;;;;;;2.67;1.10;;;12.40;99.90;;;;;;5016572;28;20120;-82
2022/09/26 13:35:55;;;;;;;4.00;1.83;;;12.40;99.90;;;;;;5031270;28;20028;-80
2022/09/26 13:38:28;;;;;;;5.82;2.28;;;12.50;99.90;;;;;;5052269;28;20017;-80
2022/09/26 13:40:53;;;;;;;3.45;1.30;;;12.40;99.90;;;;;;5037077;28;20024;-83